sensor_id;sensor_type;location;lat;lon;timestamp;P1;durP1;ratioP1;P2;durP2;ratioP2
33912;SDS011;20200;52.084;5.224;2022-08-07T00:00:51;4.2;;;2.9;;
33912;SDS011;20200;52.084;5.224;2022-08-07T00:02:38;4.91;;;3.0;;
33912;SDS011;20200;52.084;5.224;2022-08-07T00:04:25;4.7;;;3.4;;
33912;SDS011;20200;52.084;5.224;2022-08-07T00:08:00;5.2;;;3.0;;
33912;SDS011;20200;52.084;5.224;2022-08-07T00:09:47;5.11;;;3.3;;
33912;SDS011;20200;52.084;5.224;2022-08-07T00:11:35;5.2;;;3.4;;
33912;SDS011;20200;52.084;5.224;2022-08-07T00:13:22;4.7;;;3.5;;
33912;SDS011;20200;52.084;5.224;2022-08-07T00:15:10;5.11;;;3.2;;
33912;SDS011;20200;52.084;5.224;2022-08-07T00:16:57;7.0;;;3.4;;
33912;SDS011;20200;52.084;5.224;2022-08-07T00:20:32;6.0;;;3.6;;
33912;SDS011;20200;52.084;5.224;2022-08-07T00:22:20;5.9;;;3.8;;
33912;SDS011;20200;52.084;5.224;2022-08-07T00:24:07;6.3;;;3.6;;
33912;SDS011;20200;52.084;5.224;2022-08-07T00:25:54;5.6;;;3.8;;
33912;SDS011;20200;52.084;5.224;2022-08-07T00:27:41;5.2;;;3.4;;
33912;SDS011;20200;52.084;5.224;2022-08-07T00:29:30;5.4;;;3.5;;
33912;SDS011;20200;52.084;5.224;2022-08-07T00:33:04;5.5;;;3.9;;
33912;SDS011;20200;52.084;5.224;2022-08-07T00:34:51;4.7;;;3.6;;
33912;SDS011;20200;52.084;5.224;2022-08-07T00:36:38;5.9;;;3.4;;
33912;SDS011;20200;52.084;5.224;2022-08-07T00:38:25;5.2;;;3.7;;
33912;SDS011;20200;52.084;5.224;2022-08-07T00:40:12;6.3;;;3.9;;
33912;SDS011;20200;52.084;5.224;2022-08-07T00:42:00;5.6;;;3.7;;
33912;SDS011;20200;52.084;5.224;2022-08-07T00:45:36;4.61;;;3.9;;
33912;SDS011;20200;52.084;5.224;2022-08-07T00:47:24;6.2;;;3.8;;
33912;SDS011;20200;52.084;5.224;2022-08-07T00:49:12;6.3;;;4.0;;
33912;SDS011;20200;52.084;5.224;2022-08-07T00:51:01;6.4;;;3.7;;
33912;SDS011;20200;52.084;5.224;2022-08-07T00:52:50;6.2;;;3.7;;
33912;SDS011;20200;52.084;5.224;2022-08-07T00:54:37;4.8;;;3.7;;
33912;SDS011;20200;52.084;5.224;2022-08-07T00:58:13;6.5;;;3.9;;
33912;SDS011;20200;52.084;5.224;2022-08-07T01:00:00;5.3;;;3.5;;
33912;SDS011;20200;52.084;5.224;2022-08-07T01:01:49;6.1;;;3.7;;
33912;SDS011;20200;52.084;5.224;2022-08-07T01:03:37;5.11;;;3.3;;
33912;SDS011;20200;52.084;5.224;2022-08-07T01:05:25;6.5;;;3.7;;
33912;SDS011;20200;52.084;5.224;2022-08-07T01:07:14;6.2;;;3.6;;
33912;SDS011;20200;52.084;5.224;2022-08-07T01:09:02;7.8;;;3.4;;
33912;SDS011;20200;52.084;5.224;2022-08-07T01:12:39;4.91;;;3.7;;
33912;SDS011;20200;52.084;5.224;2022-08-07T01:14:28;5.5;;;3.8;;
33912;SDS011;20200;52.084;5.224;2022-08-07T01:16:15;5.7;;;3.6;;
33912;SDS011;20200;52.084;5.224;2022-08-07T01:18:02;7.0;;;4.0;;
33912;SDS011;20200;52.084;5.224;2022-08-07T01:19:51;5.2;;;4.1;;
33912;SDS011;20200;52.084;5.224;2022-08-07T01:21:43;6.2;;;3.9;;
33912;SDS011;20200;52.084;5.224;2022-08-07T01:25:19;5.2;;;3.7;;
33912;SDS011;20200;52.084;5.224;2022-08-07T01:27:06;4.5;;;3.6;;
33912;SDS011;20200;52.084;5.224;2022-08-07T01:28:53;5.11;;;3.5;;
33912;SDS011;20200;52.084;5.224;2022-08-07T01:30:40;5.7;;;3.7;;
33912;SDS011;20200;52.084;5.224;2022-08-07T01:32:30;7.5;;;3.9;;
33912;SDS011;20200;52.084;5.224;2022-08-07T01:34:17;5.2;;;4.1;;
33912;SDS011;20200;52.084;5.224;2022-08-07T01:37:53;4.1;;;3.5;;
33912;SDS011;20200;52.084;5.224;2022-08-07T01:39:41;4.2;;;3.5;;
33912;SDS011;20200;52.084;5.224;2022-08-07T01:41:29;6.0;;;4.2;;
33912;SDS011;20200;52.084;5.224;2022-08-07T01:43:16;5.3;;;3.9;;
33912;SDS011;20200;52.084;5.224;2022-08-07T01:45:04;5.5;;;3.6;;
33912;SDS011;20200;52.084;5.224;2022-08-07T01:46:53;4.91;;;3.3;;
33912;SDS011;20200;52.084;5.224;2022-08-07T01:50:28;5.8;;;3.4;;
33912;SDS011;20200;52.084;5.224;2022-08-07T01:54:06;4.5;;;3.4;;
33912;SDS011;20200;52.084;5.224;2022-08-07T01:55:57;5.7;;;3.7;;
33912;SDS011;20200;52.084;5.224;2022-08-07T01:57:48;4.61;;;3.6;;
33912;SDS011;20200;52.084;5.224;2022-08-07T01:59:39;5.9;;;3.9;;
33912;SDS011;20200;52.084;5.224;2022-08-07T02:01:31;6.4;;;4.0;;
33912;SDS011;20200;52.084;5.224;2022-08-07T02:03:24;5.3;;;3.8;;
33912;SDS011;20200;52.084;5.224;2022-08-07T02:07:07;5.6;;;3.8;;
33912;SDS011;20200;52.084;5.224;2022-08-07T02:08:57;7.8;;;4.0;;
33912;SDS011;20200;52.084;5.224;2022-08-07T02:10:52;4.91;;;3.8;;
33912;SDS011;20200;52.084;5.224;2022-08-07T02:12:41;5.6;;;4.0;;
33912;SDS011;20200;52.084;5.224;2022-08-07T02:14:31;6.8;;;3.7;;
33912;SDS011;20200;52.084;5.224;2022-08-07T02:16:23;5.6;;;3.8;;
33912;SDS011;20200;52.084;5.224;2022-08-07T02:18:12;5.0;;;3.7;;
33912;SDS011;20200;52.084;5.224;2022-08-07T02:21:50;7.6;;;4.2;;
33912;SDS011;20200;52.084;5.224;2022-08-07T02:23:40;6.7;;;3.7;;
33912;SDS011;20200;52.084;5.224;2022-08-07T02:25:29;6.2;;;4.1;;
33912;SDS011;20200;52.084;5.224;2022-08-07T02:27:19;5.7;;;3.8;;
33912;SDS011;20200;52.084;5.224;2022-08-07T02:29:08;5.7;;;4.2;;
33912;SDS011;20200;52.084;5.224;2022-08-07T02:30:56;7.3;;;4.3;;
33912;SDS011;20200;52.084;5.224;2022-08-07T02:32:46;5.11;;;3.6;;
33912;SDS011;20200;52.084;5.224;2022-08-07T02:36:24;5.7;;;3.8;;
33912;SDS011;20200;52.084;5.224;2022-08-07T02:38:13;6.9;;;3.7;;
33912;SDS011;20200;52.084;5.224;2022-08-07T02:40:04;5.11;;;4.0;;
33912;SDS011;20200;52.084;5.224;2022-08-07T02:41:54;5.5;;;4.1;;
33912;SDS011;20200;52.084;5.224;2022-08-07T02:43:42;6.9;;;4.5;;
33912;SDS011;20200;52.084;5.224;2022-08-07T02:45:30;5.2;;;4.2;;
33912;SDS011;20200;52.084;5.224;2022-08-07T02:47:19;6.6;;;4.2;;
33912;SDS011;20200;52.084;5.224;2022-08-07T02:50:54;5.5;;;4.0;;
33912;SDS011;20200;52.084;5.224;2022-08-07T02:52:45;6.0;;;3.8;;
33912;SDS011;20200;52.084;5.224;2022-08-07T02:54:51;5.4;;;4.2;;
33912;SDS011;20200;52.084;5.224;2022-08-07T02:56:40;5.4;;;4.2;;
33912;SDS011;20200;52.084;5.224;2022-08-07T02:58:30;8.0;;;4.2;;
33912;SDS011;20200;52.084;5.224;2022-08-07T03:00:18;7.7;;;3.9;;
33912;SDS011;20200;52.084;5.224;2022-08-07T03:02:06;4.41;;;3.7;;
33912;SDS011;20200;52.084;5.224;2022-08-07T03:05:43;5.7;;;4.1;;
33912;SDS011;20200;52.084;5.224;2022-08-07T03:07:32;5.11;;;4.2;;
33912;SDS011;20200;52.084;5.224;2022-08-07T03:09:18;5.7;;;4.1;;
33912;SDS011;20200;52.084;5.224;2022-08-07T03:11:07;6.7;;;4.3;;
33912;SDS011;20200;52.084;5.224;2022-08-07T03:12:55;6.8;;;4.41;;
33912;SDS011;20200;52.084;5.224;2022-08-07T03:14:42;5.8;;;4.2;;
33912;SDS011;20200;52.084;5.224;2022-08-07T03:18:19;7.0;;;4.41;;
33912;SDS011;20200;52.084;5.224;2022-08-07T03:20:08;7.0;;;4.7;;
33912;SDS011;20200;52.084;5.224;2022-08-07T03:21:56;6.9;;;4.61;;
33912;SDS011;20200;52.084;5.224;2022-08-07T03:23:44;6.5;;;4.1;;
33912;SDS011;20200;52.084;5.224;2022-08-07T03:25:34;7.3;;;4.3;;
33912;SDS011;20200;52.084;5.224;2022-08-07T03:27:24;6.5;;;4.41;;
33912;SDS011;20200;52.084;5.224;2022-08-07T03:29:12;4.8;;;4.0;;
33912;SDS011;20200;52.084;5.224;2022-08-07T03:33:17;4.91;;;3.9;;
33912;SDS011;20200;52.084;5.224;2022-08-07T03:35:05;5.11;;;4.1;;
33912;SDS011;20200;52.084;5.224;2022-08-07T03:36:58;8.31;;;4.91;;
33912;SDS011;20200;52.084;5.224;2022-08-07T03:38:47;6.2;;;4.91;;
33912;SDS011;20200;52.084;5.224;2022-08-07T03:40:37;6.7;;;4.61;;
33912;SDS011;20200;52.084;5.224;2022-08-07T03:42:24;7.4;;;5.0;;
33912;SDS011;20200;52.084;5.224;2022-08-07T03:44:12;6.0;;;4.0;;
33912;SDS011;20200;52.084;5.224;2022-08-07T03:45:59;5.9;;;3.8;;
33912;SDS011;20200;52.084;5.224;2022-08-07T03:49:35;6.0;;;4.1;;
33912;SDS011;20200;52.084;5.224;2022-08-07T03:51:22;5.5;;;3.8;;
33912;SDS011;20200;52.084;5.224;2022-08-07T03:53:11;5.5;;;3.8;;
33912;SDS011;20200;52.084;5.224;2022-08-07T03:55:00;6.3;;;4.0;;
33912;SDS011;20200;52.084;5.224;2022-08-07T03:56:47;4.91;;;3.6;;
33912;SDS011;20200;52.084;5.224;2022-08-07T03:58:36;4.91;;;3.9;;
33912;SDS011;20200;52.084;5.224;2022-08-07T04:02:11;6.8;;;4.61;;
33912;SDS011;20200;52.084;5.224;2022-08-07T04:03:59;5.4;;;4.1;;
33912;SDS011;20200;52.084;5.224;2022-08-07T04:05:46;4.61;;;3.8;;
33912;SDS011;20200;52.084;5.224;2022-08-07T04:07:33;7.7;;;4.41;;
33912;SDS011;20200;52.084;5.224;2022-08-07T04:09:21;4.91;;;4.2;;
33912;SDS011;20200;52.084;5.224;2022-08-07T04:11:08;8.0;;;4.1;;
33912;SDS011;20200;52.084;5.224;2022-08-07T04:14:44;7.0;;;4.8;;
33912;SDS011;20200;52.084;5.224;2022-08-07T04:16:32;7.7;;;4.8;;
33912;SDS011;20200;52.084;5.224;2022-08-07T04:18:19;8.71;;;5.7;;
33912;SDS011;20200;52.084;5.224;2022-08-07T04:20:08;6.5;;;5.3;;
33912;SDS011;20200;52.084;5.224;2022-08-07T04:21:57;7.7;;;5.5;;
33912;SDS011;20200;52.084;5.224;2022-08-07T04:23:44;5.8;;;4.7;;
33912;SDS011;20200;52.084;5.224;2022-08-07T04:27:20;9.81;;;5.5;;
33912;SDS011;20200;52.084;5.224;2022-08-07T04:29:08;6.9;;;5.3;;
33912;SDS011;20200;52.084;5.224;2022-08-07T04:30:56;7.8;;;5.2;;
33912;SDS011;20200;52.084;5.224;2022-08-07T04:32:43;7.4;;;5.0;;
33912;SDS011;20200;52.084;5.224;2022-08-07T04:34:31;6.6;;;4.61;;
33912;SDS011;20200;52.084;5.224;2022-08-07T04:36:18;5.2;;;4.61;;
33912;SDS011;20200;52.084;5.224;2022-08-07T04:39:53;7.7;;;5.4;;
33912;SDS011;20200;52.084;5.224;2022-08-07T04:41:40;6.1;;;5.5;;
33912;SDS011;20200;52.084;5.224;2022-08-07T04:43:28;7.3;;;5.8;;
33912;SDS011;20200;52.084;5.224;2022-08-07T04:45:19;8.31;;;5.6;;
33912;SDS011;20200;52.084;5.224;2022-08-07T04:47:08;6.3;;;5.4;;
33912;SDS011;20200;52.084;5.224;2022-08-07T04:49:03;8.5;;;5.2;;
33912;SDS011;20200;52.084;5.224;2022-08-07T04:51:00;6.4;;;5.5;;
33912;SDS011;20200;52.084;5.224;2022-08-07T04:53:05;8.5;;;5.6;;
33912;SDS011;20200;52.084;5.224;2022-08-07T04:55:00;7.4;;;5.3;;
33912;SDS011;20200;52.084;5.224;2022-08-07T04:59:04;7.6;;;5.5;;
33912;SDS011;20200;52.084;5.224;2022-08-07T05:00:58;7.0;;;5.5;;
33912;SDS011;20200;52.084;5.224;2022-08-07T05:02:53;7.6;;;5.5;;
33912;SDS011;20200;52.084;5.224;2022-08-07T05:04:51;7.9;;;5.11;;
33912;SDS011;20200;52.084;5.224;2022-08-07T05:08:54;5.7;;;4.1;;
33912;SDS011;20200;52.084;5.224;2022-08-07T05:10:48;6.2;;;4.5;;
33912;SDS011;20200;52.084;5.224;2022-08-07T05:12:49;7.5;;;5.0;;
33912;SDS011;20200;52.084;5.224;2022-08-07T05:14:43;6.3;;;4.8;;
33912;SDS011;20200;52.084;5.224;2022-08-07T05:16:33;6.7;;;5.0;;
33912;SDS011;20200;52.084;5.224;2022-08-07T05:18:27;8.71;;;5.3;;
33912;SDS011;20200;52.084;5.224;2022-08-07T05:20:16;6.5;;;4.5;;
33912;SDS011;20200;52.084;5.224;2022-08-07T05:22:07;7.1;;;4.91;;
33912;SDS011;20200;52.084;5.224;2022-08-07T05:25:46;7.0;;;4.8;;
33912;SDS011;20200;52.084;5.224;2022-08-07T05:27:36;5.8;;;4.8;;
33912;SDS011;20200;52.084;5.224;2022-08-07T05:29:25;6.4;;;4.91;;
33912;SDS011;20200;52.084;5.224;2022-08-07T05:31:13;7.8;;;6.5;;
33912;SDS011;20200;52.084;5.224;2022-08-07T05:33:03;7.0;;;5.5;;
33912;SDS011;20200;52.084;5.224;2022-08-07T05:34:51;8.6;;;5.8;;
33912;SDS011;20200;52.084;5.224;2022-08-07T05:38:32;9.31;;;7.1;;
33912;SDS011;20200;52.084;5.224;2022-08-07T05:40:20;9.1;;;7.1;;
33912;SDS011;20200;52.084;5.224;2022-08-07T05:42:08;6.8;;;5.2;;
33912;SDS011;20200;52.084;5.224;2022-08-07T05:43:55;8.1;;;5.11;;
33912;SDS011;20200;52.084;5.224;2022-08-07T05:45:43;5.3;;;4.7;;
33912;SDS011;20200;52.084;5.224;2022-08-07T05:47:31;6.5;;;5.0;;
33912;SDS011;20200;52.084;5.224;2022-08-07T05:49:20;7.1;;;5.0;;
33912;SDS011;20200;52.084;5.224;2022-08-07T05:52:56;7.6;;;5.2;;
33912;SDS011;20200;52.084;5.224;2022-08-07T05:54:43;5.5;;;4.61;;
33912;SDS011;20200;52.084;5.224;2022-08-07T05:56:30;9.1;;;5.3;;
33912;SDS011;20200;52.084;5.224;2022-08-07T05:58:20;8.9;;;6.1;;
33912;SDS011;20200;52.084;5.224;2022-08-07T06:00:09;8.71;;;5.6;;
33912;SDS011;20200;52.084;5.224;2022-08-07T06:01:57;6.2;;;4.8;;
33912;SDS011;20200;52.084;5.224;2022-08-07T06:05:40;8.9;;;5.4;;
33912;SDS011;20200;52.084;5.224;2022-08-07T06:07:30;6.4;;;5.0;;
33912;SDS011;20200;52.084;5.224;2022-08-07T06:09:18;8.81;;;5.2;;
33912;SDS011;20200;52.084;5.224;2022-08-07T06:11:06;6.8;;;5.11;;
33912;SDS011;20200;52.084;5.224;2022-08-07T06:12:54;6.5;;;5.3;;
33912;SDS011;20200;52.084;5.224;2022-08-07T06:14:41;7.0;;;5.3;;
33912;SDS011;20200;52.084;5.224;2022-08-07T06:18:20;8.31;;;5.5;;
33912;SDS011;20200;52.084;5.224;2022-08-07T06:20:08;7.9;;;5.7;;
33912;SDS011;20200;52.084;5.224;2022-08-07T06:21:55;7.5;;;5.8;;
33912;SDS011;20200;52.084;5.224;2022-08-07T06:23:44;8.9;;;5.8;;
33912;SDS011;20200;52.084;5.224;2022-08-07T06:25:31;6.1;;;5.5;;
33912;SDS011;20200;52.084;5.224;2022-08-07T06:27:19;8.81;;;6.1;;
33912;SDS011;20200;52.084;5.224;2022-08-07T06:29:07;7.2;;;6.3;;
33912;SDS011;20200;52.084;5.224;2022-08-07T06:32:42;7.6;;;6.1;;
33912;SDS011;20200;52.084;5.224;2022-08-07T06:34:30;7.9;;;5.9;;
33912;SDS011;20200;52.084;5.224;2022-08-07T06:36:17;6.6;;;5.9;;
33912;SDS011;20200;52.084;5.224;2022-08-07T06:38:04;6.6;;;6.0;;
33912;SDS011;20200;52.084;5.224;2022-08-07T06:39:52;7.2;;;5.8;;
33912;SDS011;20200;52.084;5.224;2022-08-07T06:41:41;8.0;;;5.7;;
33912;SDS011;20200;52.084;5.224;2022-08-07T06:45:25;8.1;;;5.6;;
33912;SDS011;20200;52.084;5.224;2022-08-07T06:47:13;7.7;;;5.6;;
33912;SDS011;20200;52.084;5.224;2022-08-07T06:49:01;8.1;;;5.4;;
33912;SDS011;20200;52.084;5.224;2022-08-07T06:50:48;6.5;;;5.4;;
33912;SDS011;20200;52.084;5.224;2022-08-07T06:52:40;9.0;;;5.9;;
33912;SDS011;20200;52.084;5.224;2022-08-07T06:54:31;6.7;;;5.7;;
33912;SDS011;20200;52.084;5.224;2022-08-07T06:56:38;6.8;;;5.9;;
33912;SDS011;20200;52.084;5.224;2022-08-07T06:58:27;6.7;;;5.4;;
33912;SDS011;20200;52.084;5.224;2022-08-07T07:02:03;8.71;;;5.6;;
33912;SDS011;20200;52.084;5.224;2022-08-07T07:03:56;8.0;;;5.6;;
33912;SDS011;20200;52.084;5.224;2022-08-07T07:05:43;6.4;;;5.3;;
33912;SDS011;20200;52.084;5.224;2022-08-07T07:07:31;7.8;;;5.4;;
33912;SDS011;20200;52.084;5.224;2022-08-07T07:09:21;7.2;;;5.2;;
33912;SDS011;20200;52.084;5.224;2022-08-07T07:11:09;6.1;;;5.11;;
33912;SDS011;20200;52.084;5.224;2022-08-07T07:14:59;6.0;;;5.11;;
33912;SDS011;20200;52.084;5.224;2022-08-07T07:16:49;6.4;;;5.11;;
33912;SDS011;20200;52.084;5.224;2022-08-07T07:18:42;10.1;;;8.1;;
33912;SDS011;20200;52.084;5.224;2022-08-07T07:20:34;19.7;;;17.41;;
33912;SDS011;20200;52.084;5.224;2022-08-07T07:22:28;5.4;;;4.1;;
33912;SDS011;20200;52.084;5.224;2022-08-07T07:24:15;5.2;;;3.7;;
33912;SDS011;20200;52.084;5.224;2022-08-07T07:26:04;6.5;;;3.9;;
33912;SDS011;20200;52.084;5.224;2022-08-07T07:27:55;5.3;;;4.0;;
33912;SDS011;20200;52.084;5.224;2022-08-07T07:29:47;6.5;;;4.3;;
33912;SDS011;20200;52.084;5.224;2022-08-07T07:33:32;7.1;;;4.0;;
33912;SDS011;20200;52.084;5.224;2022-08-07T07:35:21;4.91;;;3.6;;
33912;SDS011;20200;52.084;5.224;2022-08-07T07:37:09;5.0;;;3.6;;
33912;SDS011;20200;52.084;5.224;2022-08-07T07:38:58;7.2;;;3.7;;
33912;SDS011;20200;52.084;5.224;2022-08-07T07:40:48;9.4;;;6.4;;
33912;SDS011;20200;52.084;5.224;2022-08-07T07:42:36;9.21;;;5.8;;
33912;SDS011;20200;52.084;5.224;2022-08-07T07:44:25;6.6;;;4.41;;
33912;SDS011;20200;52.084;5.224;2022-08-07T07:48:03;6.6;;;4.5;;
33912;SDS011;20200;52.084;5.224;2022-08-07T07:49:52;8.4;;;3.9;;
33912;SDS011;20200;52.084;5.224;2022-08-07T07:51:41;4.0;;;3.4;;
33912;SDS011;20200;52.084;5.224;2022-08-07T07:53:31;5.3;;;3.6;;
33912;SDS011;20200;52.084;5.224;2022-08-07T07:55:22;5.6;;;3.5;;
33912;SDS011;20200;52.084;5.224;2022-08-07T07:57:12;5.9;;;3.2;;
33912;SDS011;20200;52.084;5.224;2022-08-07T07:59:02;6.0;;;3.4;;
33912;SDS011;20200;52.084;5.224;2022-08-07T08:02:43;6.4;;;3.6;;
33912;SDS011;20200;52.084;5.224;2022-08-07T08:04:34;7.8;;;3.4;;
33912;SDS011;20200;52.084;5.224;2022-08-07T08:06:22;5.4;;;3.0;;
33912;SDS011;20200;52.084;5.224;2022-08-07T08:08:11;4.3;;;3.0;;
33912;SDS011;20200;52.084;5.224;2022-08-07T08:09:58;5.5;;;3.1;;
33912;SDS011;20200;52.084;5.224;2022-08-07T08:11:47;7.4;;;3.4;;
33912;SDS011;20200;52.084;5.224;2022-08-07T08:15:27;4.7;;;3.1;;
33912;SDS011;20200;52.084;5.224;2022-08-07T08:17:18;5.6;;;2.9;;
33912;SDS011;20200;52.084;5.224;2022-08-07T08:19:08;4.61;;;3.0;;
33912;SDS011;20200;52.084;5.224;2022-08-07T08:21:01;5.6;;;3.0;;
33912;SDS011;20200;52.084;5.224;2022-08-07T08:27:08;4.5;;;2.9;;
33912;SDS011;20200;52.084;5.224;2022-08-07T08:28:58;4.1;;;2.8;;
33912;SDS011;20200;52.084;5.224;2022-08-07T08:30:48;5.0;;;2.9;;
33912;SDS011;20200;52.084;5.224;2022-08-07T08:32:42;5.0;;;2.9;;
33912;SDS011;20200;52.084;5.224;2022-08-07T08:36:26;4.2;;;2.9;;
33912;SDS011;20200;52.084;5.224;2022-08-07T08:38:17;5.11;;;2.6;;
33912;SDS011;20200;52.084;5.224;2022-08-07T08:40:09;5.0;;;2.9;;
33912;SDS011;20200;52.084;5.224;2022-08-07T08:42:04;4.61;;;2.6;;
33912;SDS011;20200;52.084;5.224;2022-08-07T08:43:58;4.1;;;2.6;;
33912;SDS011;20200;52.084;5.224;2022-08-07T08:46:05;4.0;;;2.8;;
33912;SDS011;20200;52.084;5.224;2022-08-07T08:48:05;5.4;;;2.5;;
33912;SDS011;20200;52.084;5.224;2022-08-07T08:50:03;3.2;;;2.5;;
33912;SDS011;20200;52.084;5.224;2022-08-07T08:51:58;4.8;;;2.6;;
33912;SDS011;20200;52.084;5.224;2022-08-07T08:53:51;4.5;;;2.5;;
33912;SDS011;20200;52.084;5.224;2022-08-07T08:55:43;3.9;;;2.5;;
33912;SDS011;20200;52.084;5.224;2022-08-07T08:59:30;3.9;;;2.6;;
33912;SDS011;20200;52.084;5.224;2022-08-07T09:01:29;4.41;;;2.7;;
33912;SDS011;20200;52.084;5.224;2022-08-07T09:03:24;5.4;;;2.5;;
33912;SDS011;20200;52.084;5.224;2022-08-07T09:05:22;7.9;;;2.7;;
33912;SDS011;20200;52.084;5.224;2022-08-07T09:07:23;6.9;;;5.4;;
33912;SDS011;20200;52.084;5.224;2022-08-07T09:09:35;4.2;;;2.7;;
33912;SDS011;20200;52.084;5.224;2022-08-07T09:11:38;5.0;;;2.7;;
33912;SDS011;20200;52.084;5.224;2022-08-07T09:13:31;5.0;;;2.5;;
33912;SDS011;20200;52.084;5.224;2022-08-07T09:15:29;4.7;;;2.6;;
33912;SDS011;20200;52.084;5.224;2022-08-07T09:17:28;4.61;;;2.6;;
33912;SDS011;20200;52.084;5.224;2022-08-07T09:19:24;5.3;;;2.7;;
33912;SDS011;20200;52.084;5.224;2022-08-07T09:21:26;4.41;;;2.4;;
33912;SDS011;20200;52.084;5.224;2022-08-07T09:23:24;3.7;;;2.31;;
33912;SDS011;20200;52.084;5.224;2022-08-07T09:25:20;6.9;;;2.4;;
33912;SDS011;20200;52.084;5.224;2022-08-07T09:27:15;4.3;;;2.5;;
33912;SDS011;20200;52.084;5.224;2022-08-07T09:29:16;4.61;;;2.6;;
33912;SDS011;20200;52.084;5.224;2022-08-07T09:31:12;5.6;;;2.4;;
33912;SDS011;20200;52.084;5.224;2022-08-07T09:35:10;5.4;;;2.8;;
33912;SDS011;20200;52.084;5.224;2022-08-07T09:37:10;4.0;;;2.5;;
33912;SDS011;20200;52.084;5.224;2022-08-07T09:39:11;5.6;;;2.8;;
33912;SDS011;20200;52.084;5.224;2022-08-07T09:41:13;4.61;;;2.21;;
33912;SDS011;20200;52.084;5.224;2022-08-07T09:43:11;3.8;;;2.0;;
33912;SDS011;20200;52.084;5.224;2022-08-07T09:45:11;3.3;;;2.31;;
33912;SDS011;20200;52.084;5.224;2022-08-07T09:47:08;5.7;;;2.0;;
33912;SDS011;20200;52.084;5.224;2022-08-07T09:49:05;4.41;;;2.1;;
33912;SDS011;20200;52.084;5.224;2022-08-07T09:51:11;7.1;;;2.31;;
33912;SDS011;20200;52.084;5.224;2022-08-07T09:53:21;3.0;;;2.1;;
33912;SDS011;20200;52.084;5.224;2022-08-07T09:55:13;5.7;;;2.31;;
33912;SDS011;20200;52.084;5.224;2022-08-07T09:57:43;4.1;;;2.0;;
33912;SDS011;20200;52.084;5.224;2022-08-07T10:00:30;3.3;;;2.1;;
33912;SDS011;20200;52.084;5.224;2022-08-07T10:04:00;4.0;;;2.1;;
33912;SDS011;20200;52.084;5.224;2022-08-07T10:06:11;4.2;;;2.21;;
33912;SDS011;20200;52.084;5.224;2022-08-07T10:08:42;4.2;;;2.21;;
33912;SDS011;20200;52.084;5.224;2022-08-07T10:12:09;3.5;;;1.9;;
33912;SDS011;20200;52.084;5.224;2022-08-07T10:14:11;3.8;;;2.0;;
33912;SDS011;20200;52.084;5.224;2022-08-07T10:16:18;3.2;;;1.9;;
33912;SDS011;20200;52.084;5.224;2022-08-07T10:18:35;3.2;;;2.1;;
33912;SDS011;20200;52.084;5.224;2022-08-07T10:21:07;3.2;;;1.8;;
33912;SDS011;20200;52.084;5.224;2022-08-07T10:23:19;2.5;;;1.7;;
33912;SDS011;20200;52.084;5.224;2022-08-07T10:25:35;3.4;;;2.1;;
33912;SDS011;20200;52.084;5.224;2022-08-07T10:27:46;4.41;;;2.1;;
33912;SDS011;20200;52.084;5.224;2022-08-07T10:30:48;5.8;;;2.31;;
33912;SDS011;20200;52.084;5.224;2022-08-07T10:33:06;5.2;;;2.1;;
33912;SDS011;20200;52.084;5.224;2022-08-07T10:35:51;5.6;;;2.4;;
33912;SDS011;20200;52.084;5.224;2022-08-07T10:37:54;3.6;;;1.9;;
33912;SDS011;20200;52.084;5.224;2022-08-07T10:40:02;3.5;;;1.8;;
33912;SDS011;20200;52.084;5.224;2022-08-07T10:42:04;4.61;;;2.0;;
33912;SDS011;20200;52.084;5.224;2022-08-07T10:44:02;3.9;;;1.9;;
33912;SDS011;20200;52.084;5.224;2022-08-07T10:45:59;4.2;;;2.1;;
33912;SDS011;20200;52.084;5.224;2022-08-07T10:47:55;6.3;;;1.9;;
33912;SDS011;20200;52.084;5.224;2022-08-07T10:50:02;4.2;;;2.31;;
33912;SDS011;20200;52.084;5.224;2022-08-07T10:51:56;3.1;;;2.0;;
33912;SDS011;20200;52.084;5.224;2022-08-07T10:53:53;4.1;;;2.1;;
33912;SDS011;20200;52.084;5.224;2022-08-07T10:55:59;4.91;;;2.0;;
33912;SDS011;20200;52.084;5.224;2022-08-07T10:57:57;4.2;;;2.5;;
33912;SDS011;20200;52.084;5.224;2022-08-07T11:00:00;3.8;;;1.7;;
33912;SDS011;20200;52.084;5.224;2022-08-07T11:01:53;2.21;;;2.0;;
33912;SDS011;20200;52.084;5.224;2022-08-07T11:03:48;4.1;;;2.21;;
33912;SDS011;20200;52.084;5.224;2022-08-07T11:05:46;3.4;;;2.1;;
33912;SDS011;20200;52.084;5.224;2022-08-07T11:07:44;2.6;;;2.1;;
33912;SDS011;20200;52.084;5.224;2022-08-07T11:09:51;4.3;;;2.0;;
33912;SDS011;20200;52.084;5.224;2022-08-07T11:11:44;4.1;;;3.5;;
33912;SDS011;20200;52.084;5.224;2022-08-07T11:13:40;3.4;;;2.6;;
33912;SDS011;20200;52.084;5.224;2022-08-07T11:17:29;3.3;;;1.9;;
33912;SDS011;20200;52.084;5.224;2022-08-07T11:19:25;3.1;;;2.1;;
33912;SDS011;20200;52.084;5.224;2022-08-07T11:21:33;4.3;;;2.21;;
33912;SDS011;20200;52.084;5.224;2022-08-07T11:25:32;3.7;;;2.0;;
33912;SDS011;20200;52.084;5.224;2022-08-07T11:27:26;3.5;;;2.0;;
33912;SDS011;20200;52.084;5.224;2022-08-07T11:29:21;4.1;;;2.21;;
33912;SDS011;20200;52.084;5.224;2022-08-07T11:31:17;4.8;;;2.1;;
33912;SDS011;20200;52.084;5.224;2022-08-07T11:33:22;3.1;;;2.31;;
33912;SDS011;20200;52.084;5.224;2022-08-07T11:35:27;2.6;;;2.0;;
33912;SDS011;20200;52.084;5.224;2022-08-07T11:37:22;4.5;;;2.0;;
33912;SDS011;20200;52.084;5.224;2022-08-07T11:39:58;4.1;;;1.8;;
33912;SDS011;20200;52.084;5.224;2022-08-07T11:42:02;2.31;;;2.0;;
33912;SDS011;20200;52.084;5.224;2022-08-07T11:44:02;2.5;;;2.1;;
33912;SDS011;20200;52.084;5.224;2022-08-07T11:46:04;3.5;;;2.21;;
33912;SDS011;20200;52.084;5.224;2022-08-07T11:48:04;3.7;;;2.4;;
33912;SDS011;20200;52.084;5.224;2022-08-07T11:50:20;3.3;;;1.9;;
33912;SDS011;20200;52.084;5.224;2022-08-07T11:52:25;3.1;;;2.21;;
33912;SDS011;20200;52.084;5.224;2022-08-07T11:54:37;5.2;;;2.4;;
33912;SDS011;20200;52.084;5.224;2022-08-07T11:56:50;4.0;;;2.31;;
33912;SDS011;20200;52.084;5.224;2022-08-07T11:59:05;5.11;;;2.1;;
33912;SDS011;20200;52.084;5.224;2022-08-07T12:02:10;2.7;;;2.0;;
33912;SDS011;20200;52.084;5.224;2022-08-07T12:04:24;2.31;;;1.8;;
33912;SDS011;20200;52.084;5.224;2022-08-07T12:06:30;4.7;;;2.31;;
33912;SDS011;20200;52.084;5.224;2022-08-07T12:08:33;5.5;;;2.5;;
33912;SDS011;20200;52.084;5.224;2022-08-07T12:10:26;4.7;;;3.0;;
33912;SDS011;20200;52.084;5.224;2022-08-07T12:12:22;4.1;;;2.21;;
33912;SDS011;20200;52.084;5.224;2022-08-07T12:16:06;3.9;;;3.0;;
33912;SDS011;20200;52.084;5.224;2022-08-07T12:18:02;4.8;;;2.7;;
33912;SDS011;20200;52.084;5.224;2022-08-07T12:20:05;4.91;;;2.1;;
33912;SDS011;20200;52.084;5.224;2022-08-07T12:21:58;3.5;;;2.4;;
33912;SDS011;20200;52.084;5.224;2022-08-07T12:23:53;4.3;;;2.31;;
33912;SDS011;20200;52.084;5.224;2022-08-07T12:25:53;2.6;;;2.0;;
33912;SDS011;20200;52.084;5.224;2022-08-07T12:27:48;3.3;;;2.0;;
33912;SDS011;20200;52.084;5.224;2022-08-07T12:29:40;2.8;;;2.0;;
33912;SDS011;20200;52.084;5.224;2022-08-07T12:31:35;4.8;;;2.1;;
33912;SDS011;20200;52.084;5.224;2022-08-07T12:33:30;4.1;;;2.21;;
33912;SDS011;20200;52.084;5.224;2022-08-07T12:35:18;3.0;;;2.1;;
33912;SDS011;20200;52.084;5.224;2022-08-07T12:38:59;5.9;;;2.4;;
33912;SDS011;20200;52.084;5.224;2022-08-07T12:40:49;4.0;;;2.4;;
33912;SDS011;20200;52.084;5.224;2022-08-07T12:42:39;4.5;;;2.7;;
33912;SDS011;20200;52.084;5.224;2022-08-07T12:44:28;2.7;;;2.4;;
33912;SDS011;20200;52.084;5.224;2022-08-07T12:46:19;5.8;;;2.6;;
33912;SDS011;20200;52.084;5.224;2022-08-07T12:48:22;3.7;;;2.9;;
33912;SDS011;20200;52.084;5.224;2022-08-07T12:50:17;4.0;;;3.4;;
33912;SDS011;20200;52.084;5.224;2022-08-07T12:52:20;5.8;;;3.6;;
33912;SDS011;20200;52.084;5.224;2022-08-07T12:54:23;5.3;;;3.5;;
33912;SDS011;20200;52.084;5.224;2022-08-07T12:56:17;3.8;;;3.3;;
33912;SDS011;20200;52.084;5.224;2022-08-07T13:00:04;7.8;;;3.7;;
33912;SDS011;20200;52.084;5.224;2022-08-07T13:01:54;5.3;;;4.3;;
33912;SDS011;20200;52.084;5.224;2022-08-07T13:04:03;5.8;;;4.3;;
33912;SDS011;20200;52.084;5.224;2022-08-07T13:06:14;4.5;;;3.9;;
33912;SDS011;20200;52.084;5.224;2022-08-07T13:08:21;4.5;;;3.9;;
33912;SDS011;20200;52.084;5.224;2022-08-07T13:11:33;5.0;;;4.2;;
33912;SDS011;20200;52.084;5.224;2022-08-07T13:13:38;7.7;;;4.8;;
33912;SDS011;20200;52.084;5.224;2022-08-07T13:15:41;7.8;;;4.61;;
33912;SDS011;20200;52.084;5.224;2022-08-07T13:17:48;6.1;;;5.0;;